sensor_id;sensor_type;location;lat;lon;timestamp;temperature;humidity
32400;DHT22;45045;45.440;9.178;2023-02-03T00:01:02;12.10;80.90
32400;DHT22;45045;45.440;9.178;2023-02-03T00:03:28;12.20;80.60
32400;DHT22;45045;45.440;9.178;2023-02-03T00:05:54;12.20;80.00
32400;DHT22;45045;45.440;9.178;2023-02-03T00:08:20;12.20;79.70
32400;DHT22;45045;45.440;9.178;2023-02-03T00:10:47;12.30;79.60
32400;DHT22;45045;45.440;9.178;2023-02-03T00:13:13;12.50;79.50
32400;DHT22;45045;45.440;9.178;2023-02-03T00:15:39;12.50;78.30
32400;DHT22;45045;45.440;9.178;2023-02-03T00:18:05;12.50;78.50
32400;DHT22;45045;45.440;9.178;2023-02-03T00:20:30;12.30;78.80
32400;DHT22;45045;45.440;9.178;2023-02-03T00:23:08;12.40;78.50
32400;DHT22;45045;45.440;9.178;2023-02-03T00:25:34;12.40;79.60
32400;DHT22;45045;45.440;9.178;2023-02-03T00:28:00;12.30;79.40
32400;DHT22;45045;45.440;9.178;2023-02-03T00:30:26;12.20;79.20
32400;DHT22;45045;45.440;9.178;2023-02-03T00:32:52;12.20;78.70
32400;DHT22;45045;45.440;9.178;2023-02-03T00:35:17;12.20;78.50
32400;DHT22;45045;45.440;9.178;2023-02-03T00:37:43;12.20;78.40
32400;DHT22;45045;45.440;9.178;2023-02-03T00:40:09;12.30;78.50
32400;DHT22;45045;45.440;9.178;2023-02-03T00:42:35;12.20;78.90
32400;DHT22;45045;45.440;9.178;2023-02-03T00:45:01;12.20;78.90
32400;DHT22;45045;45.440;9.178;2023-02-03T00:47:26;12.20;79.00
32400;DHT22;45045;45.440;9.178;2023-02-03T00:49:52;12.20;79.80
32400;DHT22;45045;45.440;9.178;2023-02-03T00:52:18;12.10;81.10
32400;DHT22;45045;45.440;9.178;2023-02-03T00:54:43;12.00;83.30
32400;DHT22;45045;45.440;9.178;2023-02-03T00:57:09;12.00;80.80
32400;DHT22;45045;45.440;9.178;2023-02-03T00:59:36;12.00;80.20
32400;DHT22;45045;45.440;9.178;2023-02-03T01:02:01;12.00;79.80
32400;DHT22;45045;45.440;9.178;2023-02-03T01:04:27;12.00;79.90
32400;DHT22;45045;45.440;9.178;2023-02-03T01:06:53;11.90;79.90
32400;DHT22;45045;45.440;9.178;2023-02-03T01:09:22;12.00;79.90
32400;DHT22;45045;45.440;9.178;2023-02-03T01:11:47;12.00;80.00
32400;DHT22;45045;45.440;9.178;2023-02-03T01:14:13;11.80;80.10
32400;DHT22;45045;45.440;9.178;2023-02-03T01:16:39;11.90;80.20
32400;DHT22;45045;45.440;9.178;2023-02-03T01:19:05;11.90;81.80
32400;DHT22;45045;45.440;9.178;2023-02-03T01:21:31;11.90;84.10
32400;DHT22;45045;45.440;9.178;2023-02-03T01:23:58;11.80;86.10
32400;DHT22;45045;45.440;9.178;2023-02-03T01:26:24;11.80;86.00
32400;DHT22;45045;45.440;9.178;2023-02-03T01:28:53;11.80;86.00
32400;DHT22;45045;45.440;9.178;2023-02-03T01:31:22;11.70;86.30
32400;DHT22;45045;45.440;9.178;2023-02-03T01:33:49;11.70;87.10
32400;DHT22;45045;45.440;9.178;2023-02-03T01:36:16;11.70;87.50
32400;DHT22;45045;45.440;9.178;2023-02-03T01:38:43;11.70;84.00
32400;DHT22;45045;45.440;9.178;2023-02-03T01:41:11;11.70;83.00
32400;DHT22;45045;45.440;9.178;2023-02-03T01:43:40;11.70;83.90
32400;DHT22;45045;45.440;9.178;2023-02-03T01:49:23;11.70;82.60
32400;DHT22;45045;45.440;9.178;2023-02-03T01:51:51;11.70;82.00
32400;DHT22;45045;45.440;9.178;2023-02-03T01:54:26;11.70;81.40
32400;DHT22;45045;45.440;9.178;2023-02-03T01:56:55;11.70;81.00
32400;DHT22;45045;45.440;9.178;2023-02-03T01:59:23;11.90;80.10
32400;DHT22;45045;45.440;9.178;2023-02-03T02:01:52;11.70;81.10
32400;DHT22;45045;45.440;9.178;2023-02-03T02:04:19;11.60;81.40
32400;DHT22;45045;45.440;9.178;2023-02-03T02:06:45;11.50;81.00
32400;DHT22;45045;45.440;9.178;2023-02-03T02:09:13;11.30;81.70
32400;DHT22;45045;45.440;9.178;2023-02-03T02:11:39;11.30;82.30
32400;DHT22;45045;45.440;9.178;2023-02-03T02:14:04;11.20;83.10
32400;DHT22;45045;45.440;9.178;2023-02-03T02:23:01;11.10;84.40
32400;DHT22;45045;45.440;9.178;2023-02-03T02:33:42;11.20;83.80
32400;DHT22;45045;45.440;9.178;2023-02-03T02:36:34;11.10;83.80
32400;DHT22;45045;45.440;9.178;2023-02-03T02:39:19;11.20;83.70
32400;DHT22;45045;45.440;9.178;2023-02-03T02:42:31;10.90;84.30
32400;DHT22;45045;45.440;9.178;2023-02-03T02:44:52;10.80;85.40
32400;DHT22;45045;45.440;9.178;2023-02-03T02:47:22;10.70;85.90
32400;DHT22;45045;45.440;9.178;2023-02-03T02:50:11;10.60;86.10
32400;DHT22;45045;45.440;9.178;2023-02-03T02:52:41;10.60;86.50
32400;DHT22;45045;45.440;9.178;2023-02-03T02:55:17;10.40;86.70
32400;DHT22;45045;45.440;9.178;2023-02-03T02:57:49;10.50;86.60
32400;DHT22;45045;45.440;9.178;2023-02-03T03:00:16;10.40;86.80
32400;DHT22;45045;45.440;9.178;2023-02-03T03:02:42;10.40;87.30
32400;DHT22;45045;45.440;9.178;2023-02-03T03:05:09;10.40;87.50
32400;DHT22;45045;45.440;9.178;2023-02-03T03:07:41;10.50;87.70
32400;DHT22;45045;45.440;9.178;2023-02-03T03:10:12;10.40;87.40
32400;DHT22;45045;45.440;9.178;2023-02-03T03:12:44;10.40;88.00
32400;DHT22;45045;45.440;9.178;2023-02-03T03:15:21;10.30;88.80
32400;DHT22;45045;45.440;9.178;2023-02-03T03:18:12;10.30;88.80
32400;DHT22;45045;45.440;9.178;2023-02-03T03:20:40;10.40;88.70
32400;DHT22;45045;45.440;9.178;2023-02-03T03:23:14;10.30;89.20
32400;DHT22;45045;45.440;9.178;2023-02-03T03:25:45;10.20;90.20
32400;DHT22;45045;45.440;9.178;2023-02-03T03:28:24;10.20;90.10
32400;DHT22;45045;45.440;9.178;2023-02-03T03:30:51;10.20;90.00
32400;DHT22;45045;45.440;9.178;2023-02-03T03:33:17;10.20;90.20
32400;DHT22;45045;45.440;9.178;2023-02-03T03:35:54;10.20;90.60
32400;DHT22;45045;45.440;9.178;2023-02-03T03:38:25;10.10;90.60
32400;DHT22;45045;45.440;9.178;2023-02-03T03:41:23;10.10;90.80
32400;DHT22;45045;45.440;9.178;2023-02-03T03:43:51;10.00;90.60
32400;DHT22;45045;45.440;9.178;2023-02-03T03:46:24;10.00;90.60
32400;DHT22;45045;45.440;9.178;2023-02-03T03:48:52;10.10;90.40
32400;DHT22;45045;45.440;9.178;2023-02-03T03:51:33;10.20;90.30
32400;DHT22;45045;45.440;9.178;2023-02-03T03:54:06;10.20;90.80
32400;DHT22;45045;45.440;9.178;2023-02-03T03:56:51;10.10;90.60
32400;DHT22;45045;45.440;9.178;2023-02-03T03:59:20;10.10;90.30
32400;DHT22;45045;45.440;9.178;2023-02-03T04:01:47;10.00;90.60
32400;DHT22;45045;45.440;9.178;2023-02-03T04:04:14;10.00;90.80
32400;DHT22;45045;45.440;9.178;2023-02-03T04:06:40;10.00;90.90
32400;DHT22;45045;45.440;9.178;2023-02-03T04:09:06;10.00;90.70
32400;DHT22;45045;45.440;9.178;2023-02-03T04:11:32;10.00;91.00
32400;DHT22;45045;45.440;9.178;2023-02-03T04:14:17;10.00;91.00
32400;DHT22;45045;45.440;9.178;2023-02-03T04:16:42;9.90;91.40
32400;DHT22;45045;45.440;9.178;2023-02-03T04:19:08;9.90;91.20
32400;DHT22;45045;45.440;9.178;2023-02-03T04:21:34;9.80;91.90
32400;DHT22;45045;45.440;9.178;2023-02-03T04:23:59;9.80;92.60
32400;DHT22;45045;45.440;9.178;2023-02-03T04:26:25;9.80;92.00
32400;DHT22;45045;45.440;9.178;2023-02-03T04:28:51;9.70;92.00
32400;DHT22;45045;45.440;9.178;2023-02-03T04:31:17;9.70;92.70
32400;DHT22;45045;45.440;9.178;2023-02-03T04:33:43;9.60;91.80
32400;DHT22;45045;45.440;9.178;2023-02-03T04:36:09;9.70;91.60
32400;DHT22;45045;45.440;9.178;2023-02-03T04:38:34;9.70;92.30
32400;DHT22;45045;45.440;9.178;2023-02-03T04:41:00;9.70;91.50
32400;DHT22;45045;45.440;9.178;2023-02-03T04:43:26;9.70;91.50
32400;DHT22;45045;45.440;9.178;2023-02-03T04:45:51;9.80;91.30
32400;DHT22;45045;45.440;9.178;2023-02-03T04:48:17;9.50;91.10
32400;DHT22;45045;45.440;9.178;2023-02-03T04:50:42;9.60;91.50
32400;DHT22;45045;45.440;9.178;2023-02-03T04:53:08;9.60;92.10
32400;DHT22;45045;45.440;9.178;2023-02-03T04:55:34;9.50;92.20
32400;DHT22;45045;45.440;9.178;2023-02-03T04:58:00;9.50;91.40
32400;DHT22;45045;45.440;9.178;2023-02-03T05:00:27;9.50;92.30
32400;DHT22;45045;45.440;9.178;2023-02-03T05:02:53;9.40;91.90
32400;DHT22;45045;45.440;9.178;2023-02-03T05:05:20;9.40;92.00
32400;DHT22;45045;45.440;9.178;2023-02-03T05:07:46;9.40;91.90
32400;DHT22;45045;45.440;9.178;2023-02-03T05:10:11;9.40;92.70
32400;DHT22;45045;45.440;9.178;2023-02-03T05:12:37;9.50;92.60
32400;DHT22;45045;45.440;9.178;2023-02-03T05:15:03;9.50;92.80
32400;DHT22;45045;45.440;9.178;2023-02-03T05:17:28;9.50;92.10
32400;DHT22;45045;45.440;9.178;2023-02-03T05:19:54;9.40;92.40
32400;DHT22;45045;45.440;9.178;2023-02-03T05:22:19;9.30;92.10
32400;DHT22;45045;45.440;9.178;2023-02-03T05:24:45;9.30;92.00
32400;DHT22;45045;45.440;9.178;2023-02-03T05:27:11;9.30;92.40
32400;DHT22;45045;45.440;9.178;2023-02-03T05:29:36;9.30;92.50
32400;DHT22;45045;45.440;9.178;2023-02-03T05:32:03;9.30;93.00
32400;DHT22;45045;45.440;9.178;2023-02-03T05:34:28;9.20;92.20
32400;DHT22;45045;45.440;9.178;2023-02-03T05:36:54;9.20;92.00
32400;DHT22;45045;45.440;9.178;2023-02-03T05:39:19;9.30;92.00
32400;DHT22;45045;45.440;9.178;2023-02-03T05:41:45;9.40;91.80
32400;DHT22;45045;45.440;9.178;2023-02-03T05:44:17;9.30;92.30
32400;DHT22;45045;45.440;9.178;2023-02-03T05:46:43;9.10;91.90
32400;DHT22;45045;45.440;9.178;2023-02-03T05:49:09;9.10;91.60
32400;DHT22;45045;45.440;9.178;2023-02-03T05:51:34;9.00;91.60
32400;DHT22;45045;45.440;9.178;2023-02-03T05:54:00;8.90;91.70
32400;DHT22;45045;45.440;9.178;2023-02-03T05:56:26;8.90;91.90
32400;DHT22;45045;45.440;9.178;2023-02-03T05:58:51;9.00;91.50
32400;DHT22;45045;45.440;9.178;2023-02-03T06:01:18;9.00;91.50
32400;DHT22;45045;45.440;9.178;2023-02-03T06:03:44;8.90;92.10
32400;DHT22;45045;45.440;9.178;2023-02-03T06:06:10;8.90;93.60
32400;DHT22;45045;45.440;9.178;2023-02-03T06:08:35;8.80;93.70
32400;DHT22;45045;45.440;9.178;2023-02-03T06:11:01;8.70;93.60
32400;DHT22;45045;45.440;9.178;2023-02-03T06:13:27;8.60;92.70
32400;DHT22;45045;45.440;9.178;2023-02-03T06:15:53;8.50;93.00
32400;DHT22;45045;45.440;9.178;2023-02-03T06:18:19;8.30;93.00
32400;DHT22;45045;45.440;9.178;2023-02-03T06:20:45;8.00;93.70
32400;DHT22;45045;45.440;9.178;2023-02-03T06:23:11;8.00;94.10
32400;DHT22;45045;45.440;9.178;2023-02-03T06:25:36;7.70;94.20
32400;DHT22;45045;45.440;9.178;2023-02-03T06:28:02;7.60;94.30
32400;DHT22;45045;45.440;9.178;2023-02-03T06:30:28;7.60;94.40
32400;DHT22;45045;45.440;9.178;2023-02-03T06:32:54;7.60;94.40
32400;DHT22;45045;45.440;9.178;2023-02-03T06:35:19;7.60;94.50
32400;DHT22;45045;45.440;9.178;2023-02-03T06:37:45;7.60;94.30
32400;DHT22;45045;45.440;9.178;2023-02-03T06:40:11;7.60;94.60
32400;DHT22;45045;45.440;9.178;2023-02-03T06:42:37;8.30;99.90
32400;DHT22;45045;45.440;9.178;2023-02-03T06:45:03;9.90;98.50
32400;DHT22;45045;45.440;9.178;2023-02-03T06:47:29;9.40;92.60
32400;DHT22;45045;45.440;9.178;2023-02-03T06:49:55;8.80;92.90
32400;DHT22;45045;45.440;9.178;2023-02-03T06:52:20;9.20;97.80
32400;DHT22;45045;45.440;9.178;2023-02-03T06:54:46;10.20;97.90
32400;DHT22;45045;45.440;9.178;2023-02-03T06:57:12;10.70;96.60
32400;DHT22;45045;45.440;9.178;2023-02-03T06:59:37;11.40;99.70
32400;DHT22;45045;45.440;9.178;2023-02-03T07:02:03;11.50;91.80
32400;DHT22;45045;45.440;9.178;2023-02-03T07:04:29;11.60;93.40
32400;DHT22;45045;45.440;9.178;2023-02-03T07:06:55;11.70;94.70
32400;DHT22;45045;45.440;9.178;2023-02-03T07:09:22;12.30;99.20
32400;DHT22;45045;45.440;9.178;2023-02-03T07:11:47;12.50;96.50
32400;DHT22;45045;45.440;9.178;2023-02-03T07:14:13;12.50;92.70
32400;DHT22;45045;45.440;9.178;2023-02-03T07:16:39;12.30;84.60
32400;DHT22;45045;45.440;9.178;2023-02-03T07:19:05;12.30;95.40
32400;DHT22;45045;45.440;9.178;2023-02-03T07:21:31;13.00;99.90
32400;DHT22;45045;45.440;9.178;2023-02-03T07:23:57;13.50;99.90
32400;DHT22;45045;45.440;9.178;2023-02-03T07:26:22;13.60;98.40
32400;DHT22;45045;45.440;9.178;2023-02-03T07:28:49;13.70;99.60
32400;DHT22;45045;45.440;9.178;2023-02-03T07:31:17;13.70;99.30
32400;DHT22;45045;45.440;9.178;2023-02-03T07:33:42;13.80;99.90
32400;DHT22;45045;45.440;9.178;2023-02-03T07:36:09;14.10;99.90
32400;DHT22;45045;45.440;9.178;2023-02-03T07:38:36;14.40;99.90
32400;DHT22;45045;45.440;9.178;2023-02-03T07:41:05;14.60;99.60
32400;DHT22;45045;45.440;9.178;2023-02-03T07:43:31;14.80;98.50
32400;DHT22;45045;45.440;9.178;2023-02-03T07:45:56;15.00;97.70
32400;DHT22;45045;45.440;9.178;2023-02-03T07:48:22;15.00;96.50
32400;DHT22;45045;45.440;9.178;2023-02-03T07:50:48;15.10;93.90
32400;DHT22;45045;45.440;9.178;2023-02-03T07:53:15;14.70;89.30
32400;DHT22;45045;45.440;9.178;2023-02-03T07:55:41;14.20;73.40
32400;DHT22;45045;45.440;9.178;2023-02-03T07:58:07;14.00;88.70
32400;DHT22;45045;45.440;9.178;2023-02-03T08:00:33;14.20;92.80
32400;DHT22;45045;45.440;9.178;2023-02-03T08:02:58;14.40;92.80
32400;DHT22;45045;45.440;9.178;2023-02-03T08:05:24;14.50;86.50
32400;DHT22;45045;45.440;9.178;2023-02-03T08:07:50;14.70;81.20
32400;DHT22;45045;45.440;9.178;2023-02-03T08:10:17;14.90;81.10
32400;DHT22;45045;45.440;9.178;2023-02-03T08:12:43;15.00;81.20
32400;DHT22;45045;45.440;9.178;2023-02-03T08:15:11;15.10;89.40
32400;DHT22;45045;45.440;9.178;2023-02-03T08:17:37;15.30;91.10
32400;DHT22;45045;45.440;9.178;2023-02-03T08:20:07;15.50;81.20
32400;DHT22;45045;45.440;9.178;2023-02-03T08:22:33;15.60;88.90
32400;DHT22;45045;45.440;9.178;2023-02-03T08:24:59;15.70;91.10
32400;DHT22;45045;45.440;9.178;2023-02-03T08:27:25;15.80;90.50
32400;DHT22;45045;45.440;9.178;2023-02-03T08:29:50;16.20;74.80
32400;DHT22;45045;45.440;9.178;2023-02-03T08:32:18;16.50;71.40
32400;DHT22;45045;45.440;9.178;2023-02-03T08:34:45;16.40;65.80
32400;DHT22;45045;45.440;9.178;2023-02-03T08:37:12;16.20;65.00
32400;DHT22;45045;45.440;9.178;2023-02-03T08:39:39;16.40;65.20
32400;DHT22;45045;45.440;9.178;2023-02-03T08:42:05;16.50;64.20
32400;DHT22;45045;45.440;9.178;2023-02-03T08:44:31;16.60;63.10
32400;DHT22;45045;45.440;9.178;2023-02-03T08:46:58;16.70;63.50
32400;DHT22;45045;45.440;9.178;2023-02-03T08:49:26;16.90;61.80
32400;DHT22;45045;45.440;9.178;2023-02-03T08:51:53;17.00;62.00
32400;DHT22;45045;45.440;9.178;2023-02-03T08:54:19;17.00;62.10
32400;DHT22;45045;45.440;9.178;2023-02-03T08:56:55;17.20;60.20
32400;DHT22;45045;45.440;9.178;2023-02-03T08:59:40;17.30;60.40
32400;DHT22;45045;45.440;9.178;2023-02-03T09:02:14;17.20;59.10
32400;DHT22;45045;45.440;9.178;2023-02-03T09:04:41;17.10;59.80
32400;DHT22;45045;45.440;9.178;2023-02-03T09:07:26;17.60;59.40
32400;DHT22;45045;45.440;9.178;2023-02-03T09:09:53;18.10;59.00
32400;DHT22;45045;45.440;9.178;2023-02-03T09:12:22;18.10;70.70
32400;DHT22;45045;45.440;9.178;2023-02-03T09:14:48;18.10;84.10
32400;DHT22;45045;45.440;9.178;2023-02-03T09:17:20;18.30;58.00
32400;DHT22;45045;45.440;9.178;2023-02-03T09:19:45;18.40;57.00
32400;DHT22;45045;45.440;9.178;2023-02-03T09:22:11;18.30;56.40
32400;DHT22;45045;45.440;9.178;2023-02-03T09:24:58;18.20;57.00
32400;DHT22;45045;45.440;9.178;2023-02-03T09:27:32;18.90;55.90
32400;DHT22;45045;45.440;9.178;2023-02-03T09:29:58;19.10;58.10
32400;DHT22;45045;45.440;9.178;2023-02-03T09:32:27;19.30;54.10
32400;DHT22;45045;45.440;9.178;2023-02-03T09:34:55;19.40;54.10
32400;DHT22;45045;45.440;9.178;2023-02-03T09:37:32;19.70;53.00
32400;DHT22;45045;45.440;9.178;2023-02-03T09:39:58;20.10;51.90
32400;DHT22;45045;45.440;9.178;2023-02-03T09:45:29;20.10;50.50
32400;DHT22;45045;45.440;9.178;2023-02-03T09:48:18;20.30;50.00
32400;DHT22;45045;45.440;9.178;2023-02-03T09:50:46;20.80;49.20
32400;DHT22;45045;45.440;9.178;2023-02-03T09:53:36;21.20;47.80
32400;DHT22;45045;45.440;9.178;2023-02-03T09:56:08;21.50;46.70
32400;DHT22;45045;45.440;9.178;2023-02-03T09:58:50;21.70;46.00
32400;DHT22;45045;45.440;9.178;2023-02-03T10:01:24;21.80;54.70
32400;DHT22;45045;45.440;9.178;2023-02-03T10:04:37;21.30;63.10
32400;DHT22;45045;45.440;9.178;2023-02-03T10:17:28;23.00;43.40
32400;DHT22;45045;45.440;9.178;2023-02-03T10:19:42;23.50;41.80
32400;DHT22;45045;45.440;9.178;2023-02-03T10:22:26;23.30;39.80
32400;DHT22;45045;45.440;9.178;2023-02-03T10:28:08;23.30;40.20
32400;DHT22;45045;45.440;9.178;2023-02-03T10:31:31;23.90;40.20
32400;DHT22;45045;45.440;9.178;2023-02-03T10:33:36;24.10;39.20
32400;DHT22;45045;45.440;9.178;2023-02-03T10:36:22;24.40;38.20
32400;DHT22;45045;45.440;9.178;2023-02-03T10:41:36;24.70;37.60
32400;DHT22;45045;45.440;9.178;2023-02-03T10:44:05;24.80;38.20
32400;DHT22;45045;45.440;9.178;2023-02-03T10:46:39;24.60;46.40
32400;DHT22;45045;45.440;9.178;2023-02-03T10:49:12;23.90;51.80
32400;DHT22;45045;45.440;9.178;2023-02-03T10:51:50;23.50;53.20
32400;DHT22;45045;45.440;9.178;2023-02-03T10:54:28;23.30;53.80
32400;DHT22;45045;45.440;9.178;2023-02-03T10:57:00;23.20;54.20
32400;DHT22;45045;45.440;9.178;2023-02-03T10:59:32;23.30;55.00
32400;DHT22;45045;45.440;9.178;2023-02-03T11:01:58;23.30;56.30
32400;DHT22;45045;45.440;9.178;2023-02-03T11:04:30;23.20;55.20
32400;DHT22;45045;45.440;9.178;2023-02-03T11:07:02;23.10;55.80
32400;DHT22;45045;45.440;9.178;2023-02-03T11:09:38;23.20;55.80
32400;DHT22;45045;45.440;9.178;2023-02-03T11:12:16;23.20;55.30
32400;DHT22;45045;45.440;9.178;2023-02-03T11:14:51;23.20;54.70
32400;DHT22;45045;45.440;9.178;2023-02-03T11:24:23;25.00;41.20
32400;DHT22;45045;45.440;9.178;2023-02-03T11:32:40;26.40;38.30
32400;DHT22;45045;45.440;9.178;2023-02-03T11:35:25;26.10;45.30
32400;DHT22;45045;45.440;9.178;2023-02-03T11:41:00;25.80;48.10
32400;DHT22;45045;45.440;9.178;2023-02-03T11:43:29;25.90;49.20
32400;DHT22;45045;45.440;9.178;2023-02-03T11:46:04;25.80;49.20
32400;DHT22;45045;45.440;9.178;2023-02-03T11:48:44;26.40;42.60
32400;DHT22;45045;45.440;9.178;2023-02-03T11:54:05;27.00;38.20
32400;DHT22;45045;45.440;9.178;2023-02-03T11:56:53;27.30;38.60
32400;DHT22;45045;45.440;9.178;2023-02-03T12:02:58;27.80;37.10
32400;DHT22;45045;45.440;9.178;2023-02-03T12:05:41;27.70;37.50
32400;DHT22;45045;45.440;9.178;2023-02-03T12:22:36;28.00;36.90
32400;DHT22;45045;45.440;9.178;2023-02-03T12:25:38;27.50;37.70
32400;DHT22;45045;45.440;9.178;2023-02-03T12:39:36;27.90;40.90
32400;DHT22;45045;45.440;9.178;2023-02-03T12:48:16;27.80;37.80
32400;DHT22;45045;45.440;9.178;2023-02-03T12:50:59;27.40;37.70
32400;DHT22;45045;45.440;9.178;2023-02-03T12:53:44;27.20;39.60
32400;DHT22;45045;45.440;9.178;2023-02-03T12:56:21;26.90;38.20
32400;DHT22;45045;45.440;9.178;2023-02-03T12:58:51;26.30;39.10
32400;DHT22;45045;45.440;9.178;2023-02-03T13:01:35;25.90;39.90
32400;DHT22;45045;45.440;9.178;2023-02-03T13:07:32;25.80;40.90
32400;DHT22;45045;45.440;9.178;2023-02-03T13:12:28;26.50;43.00
32400;DHT22;45045;45.440;9.178;2023-02-03T13:17:28;27.10;41.70
32400;DHT22;45045;45.440;9.178;2023-02-03T13:19:58;27.10;41.80
32400;DHT22;45045;45.440;9.178;2023-02-03T13:22:25;27.10;41.90
32400;DHT22;45045;45.440;9.178;2023-02-03T13:42:40;24.80;45.60
32400;DHT22;45045;45.440;9.178;2023-02-03T13:51:07;25.90;45.80
32400;DHT22;45045;45.440;9.178;2023-02-03T13:53:39;26.10;45.10
32400;DHT22;45045;45.440;9.178;2023-02-03T13:56:14;26.10;44.30
32400;DHT22;45045;45.440;9.178;2023-02-03T13:59:01;25.20;45.30
32400;DHT22;45045;45.440;9.178;2023-02-03T14:01:38;24.80;46.40
32400;DHT22;45045;45.440;9.178;2023-02-03T14:06:58;24.70;47.60
32400;DHT22;45045;45.440;9.178;2023-02-03T14:09:37;24.70;47.70
32400;DHT22;45045;45.440;9.178;2023-02-03T14:12:35;24.90;48.00
32400;DHT22;45045;45.440;9.178;2023-02-03T14:15:30;24.90;48.10
32400;DHT22;45045;45.440;9.178;2023-02-03T14:20:42;24.50;48.10
32400;DHT22;45045;45.440;9.178;2023-02-03T14:23:41;24.80;47.40
32400;DHT22;45045;45.440;9.178;2023-02-03T14:26:29;25.30;47.20
32400;DHT22;45045;45.440;9.178;2023-02-03T14:29:21;25.50;46.80
32400;DHT22;45045;45.440;9.178;2023-02-03T14:31:58;25.50;48.20
32400;DHT22;45045;45.440;9.178;2023-02-03T14:34:47;25.20;47.60
32400;DHT22;45045;45.440;9.178;2023-02-03T14:37:28;24.70;48.30
32400;DHT22;45045;45.440;9.178;2023-02-03T14:40:36;24.30;49.30
32400;DHT22;45045;45.440;9.178;2023-02-03T14:52:32;23.80;50.30
32400;DHT22;45045;45.440;9.178;2023-02-03T14:55:28;23.80;50.60
32400;DHT22;45045;45.440;9.178;2023-02-03T14:58:02;23.60;50.40
32400;DHT22;45045;45.440;9.178;2023-02-03T15:00:32;23.60;51.00
32400;DHT22;45045;45.440;9.178;2023-02-03T15:03:16;23.50;51.50
32400;DHT22;45045;45.440;9.178;2023-02-03T15:05:52;23.70;51.60
32400;DHT22;45045;45.440;9.178;2023-02-03T15:08:42;23.20;51.50
32400;DHT22;45045;45.440;9.178;2023-02-03T15:11:30;23.20;52.20
32400;DHT22;45045;45.440;9.178;2023-02-03T15:14:18;23.10;52.80
32400;DHT22;45045;45.440;9.178;2023-02-03T15:16:44;23.20;52.20
32400;DHT22;45045;45.440;9.178;2023-02-03T15:19:16;22.90;52.50
32400;DHT22;45045;45.440;9.178;2023-02-03T15:21:42;22.90;54.00
32400;DHT22;45045;45.440;9.178;2023-02-03T15:24:16;23.40;54.00
32400;DHT22;45045;45.440;9.178;2023-02-03T15:26:51;23.60;54.90
32400;DHT22;45045;45.440;9.178;2023-02-03T15:29:27;23.80;54.20
32400;DHT22;45045;45.440;9.178;2023-02-03T15:32:11;23.90;55.00
32400;DHT22;45045;45.440;9.178;2023-02-03T15:34:44;23.80;52.30
32400;DHT22;45045;45.440;9.178;2023-02-03T15:37:27;22.90;52.80
32400;DHT22;45045;45.440;9.178;2023-02-03T15:40:19;22.30;53.20
32400;DHT22;45045;45.440;9.178;2023-02-03T15:42:53;22.20;53.80
32400;DHT22;45045;45.440;9.178;2023-02-03T15:48:12;22.10;53.80
32400;DHT22;45045;45.440;9.178;2023-02-03T15:50:49;21.90;53.50
32400;DHT22;45045;45.440;9.178;2023-02-03T15:53:24;21.90;53.30
32400;DHT22;45045;45.440;9.178;2023-02-03T15:55:54;21.70;53.50
32400;DHT22;45045;45.440;9.178;2023-02-03T15:58:27;21.30;54.30
32400;DHT22;45045;45.440;9.178;2023-02-03T16:00:57;21.30;54.50
32400;DHT22;45045;45.440;9.178;2023-02-03T16:03:50;21.20;54.90
32400;DHT22;45045;45.440;9.178;2023-02-03T16:06:29;21.10;55.20
32400;DHT22;45045;45.440;9.178;2023-02-03T16:09:01;20.90;55.50
32400;DHT22;45045;45.440;9.178;2023-02-03T16:11:36;20.70;55.70
32400;DHT22;45045;45.440;9.178;2023-02-03T16:14:08;20.70;55.80
32400;DHT22;45045;45.440;9.178;2023-02-03T16:16:41;20.50;56.00
32400;DHT22;45045;45.440;9.178;2023-02-03T16:19:15;20.60;56.00
32400;DHT22;45045;45.440;9.178;2023-02-03T16:24:39;20.40;56.20
32400;DHT22;45045;45.440;9.178;2023-02-03T16:29:45;19.90;57.40
32400;DHT22;45045;45.440;9.178;2023-02-03T16:32:30;20.00;57.50
32400;DHT22;45045;45.440;9.178;2023-02-03T16:35:15;19.80;57.90
32400;DHT22;45045;45.440;9.178;2023-02-03T16:40:55;20.00;58.10
32400;DHT22;45045;45.440;9.178;2023-02-03T16:43:39;19.80;58.70
32400;DHT22;45045;45.440;9.178;2023-02-03T16:46:23;19.70;59.30
32400;DHT22;45045;45.440;9.178;2023-02-03T16:49:07;19.80;59.10
32400;DHT22;45045;45.440;9.178;2023-02-03T16:51:51;19.90;59.40
32400;DHT22;45045;45.440;9.178;2023-02-03T16:54:17;19.70;59.40
32400;DHT22;45045;45.440;9.178;2023-02-03T16:56:43;19.60;60.00
32400;DHT22;45045;45.440;9.178;2023-02-03T16:59:09;19.60;59.90
32400;DHT22;45045;45.440;9.178;2023-02-03T17:01:35;19.60;59.60
32400;DHT22;45045;45.440;9.178;2023-02-03T17:04:01;19.40;59.80
32400;DHT22;45045;45.440;9.178;2023-02-03T17:06:27;19.60;59.90
32400;DHT22;45045;45.440;9.178;2023-02-03T17:08:54;19.30;60.20
32400;DHT22;45045;45.440;9.178;2023-02-03T17:11:21;19.10;59.90
32400;DHT22;45045;45.440;9.178;2023-02-03T17:13:48;18.80;60.40
32400;DHT22;45045;45.440;9.178;2023-02-03T17:18:41;18.40;62.40
32400;DHT22;45045;45.440;9.178;2023-02-03T17:21:13;18.30;63.30
32400;DHT22;45045;45.440;9.178;2023-02-03T17:23:39;18.20;64.30
32400;DHT22;45045;45.440;9.178;2023-02-03T17:26:05;18.10;65.10
32400;DHT22;45045;45.440;9.178;2023-02-03T17:28:32;18.00;65.70
32400;DHT22;45045;45.440;9.178;2023-02-03T17:31:00;18.10;66.10
32400;DHT22;45045;45.440;9.178;2023-02-03T17:33:27;17.90;66.40
32400;DHT22;45045;45.440;9.178;2023-02-03T17:36:05;17.90;66.60
32400;DHT22;45045;45.440;9.178;2023-02-03T17:38:45;17.80;67.30
32400;DHT22;45045;45.440;9.178;2023-02-03T17:41:13;17.70;67.80
32400;DHT22;45045;45.440;9.178;2023-02-03T17:43:39;17.60;68.30
32400;DHT22;45045;45.440;9.178;2023-02-03T17:46:06;17.70;68.10
32400;DHT22;45045;45.440;9.178;2023-02-03T17:48:32;17.70;69.80
32400;DHT22;45045;45.440;9.178;2023-02-03T17:51:21;17.60;68.40
32400;DHT22;45045;45.440;9.178;2023-02-03T17:53:50;17.60;68.50
32400;DHT22;45045;45.440;9.178;2023-02-03T17:56:19;17.30;69.10
32400;DHT22;45045;45.440;9.178;2023-02-03T17:58:45;17.20;70.10
32400;DHT22;45045;45.440;9.178;2023-02-03T18:01:16;17.30;71.20
32400;DHT22;45045;45.440;9.178;2023-02-03T18:03:44;17.30;72.40
32400;DHT22;45045;45.440;9.178;2023-02-03T18:06:11;17.20;73.30
32400;DHT22;45045;45.440;9.178;2023-02-03T18:08:38;17.30;74.20
32400;DHT22;45045;45.440;9.178;2023-02-03T18:11:05;17.20;76.00
32400;DHT22;45045;45.440;9.178;2023-02-03T18:13:34;17.20;76.40
32400;DHT22;45045;45.440;9.178;2023-02-03T18:16:04;17.30;76.70
32400;DHT22;45045;45.440;9.178;2023-02-03T18:18:30;17.20;77.20
32400;DHT22;45045;45.440;9.178;2023-02-03T18:20:56;17.50;77.90
32400;DHT22;45045;45.440;9.178;2023-02-03T18:23:22;17.60;77.80
32400;DHT22;45045;45.440;9.178;2023-02-03T18:25:52;17.80;78.20
32400;DHT22;45045;45.440;9.178;2023-02-03T18:28:18;17.70;78.60